Time;durP1;ratioP1;P1;durP2;ratioP2;P2;SDS_P1;SDS_P2;PMS_P1;PMS_P2;Temp;Humidity;BMP_temperature;BMP_pressure;BME280_temperature;BME280_humidity;BME280_pressure;Samples;Min_cycle;Max_cycle;Signal;HPM_P1;HPM_P2
2021/05/12 00:00:26;;;;;;;4.35;2.00;;;18.90;66.80;;;;;;5017203;28;20077;-71
2021/05/12 00:02:53;;;;;;;3.90;1.42;;;18.80;66.90;;;;;;4995897;28;20057;-71
2021/05/12 00:05:22;;;;;;;2.30;1.50;;;18.70;67.00;;;;;;4989893;28;20120;-71
2021/05/12 00:07:50;;;;;;;3.58;1.65;;;18.60;67.20;;;;;;5014189;28;20045;-71
2021/05/12 00:10:19;;;;;;;4.13;1.85;;;18.50;67.70;;;;;;5015839;28;20045;-71
2021/05/12 00:12:46;;;;;;;2.38;1.67;;;18.50;67.80;;;;;;5014849;28;20053;-71
2021/05/12 00:15:15;;;;;;;3.22;1.77;;;18.50;67.40;;;;;;4997037;28;20050;-71
2021/05/12 00:17:45;;;;;;;4.03;1.77;;;18.30;68.50;;;;;;5017531;28;20054;-71
2021/05/12 00:20:16;;;;;;;3.88;1.65;;;18.20;68.70;;;;;;5019723;28;20060;-71
2021/05/12 00:23:08;;;;;;;1.90;1.17;;;18.20;69.10;;;;;;5053934;28;20141;-71
2021/05/12 00:25:35;;;;;;;5.05;1.67;;;18.20;69.30;;;;;;5033698;28;20407;-71
2021/05/12 00:28:03;;;;;;;4.07;1.75;;;18.10;70.10;;;;;;5038242;28;20068;-71
2021/05/12 00:30:30;;;;;;;3.30;1.80;;;18.00;70.50;;;;;;5033867;28;20045;-71
2021/05/12 00:32:57;;;;;;;3.97;1.98;;;17.90;70.30;;;;;;5031375;28;20045;-71
2021/05/12 00:35:24;;;;;;;2.70;1.40;;;17.80;70.40;;;;;;5034678;28;20056;-71
2021/05/12 00:37:51;;;;;;;2.78;1.55;;;17.80;70.70;;;;;;5036315;28;20059;-71
2021/05/12 00:40:19;;;;;;;2.85;1.27;;;17.80;70.70;;;;;;5035369;28;20041;-71
2021/05/12 00:42:47;;;;;;;4.00;1.52;;;17.80;71.10;;;;;;5022042;28;20111;-71
2021/05/12 00:45:20;;;;;;;2.85;1.85;;;17.70;71.20;;;;;;5025970;28;20053;-71
2021/05/12 00:47:50;;;;;;;2.83;1.60;;;17.70;71.70;;;;;;5052103;28;20033;-71
2021/05/12 00:50:21;;;;;;;4.95;1.92;;;17.70;71.20;;;;;;5025188;28;20049;-71
2021/05/12 00:52:48;;;;;;;4.32;1.73;;;17.70;71.10;;;;;;5043658;28;20052;-71
2021/05/12 00:55:16;;;;;;;3.40;1.80;;;17.60;71.10;;;;;;5017377;28;20041;-71
2021/05/12 00:57:44;;;;;;;3.20;1.50;;;17.60;70.60;;;;;;5042650;28;20089;-71
2021/05/12 01:00:13;;;;;;;3.97;1.48;;;17.60;70.70;;;;;;5039885;28;20061;-71
2021/05/12 01:02:40;;;;;;;3.10;1.40;;;17.50;70.90;;;;;;5032589;28;20076;-71
2021/05/12 01:05:26;;;;;;;2.53;1.42;;;17.50;71.10;;;;;;5027702;28;20056;-71
2021/05/12 01:07:53;;;;;;;2.53;1.65;;;17.40;71.20;;;;;;5052237;28;20049;-71
2021/05/12 01:10:21;;;;;;;2.72;1.38;;;17.40;71.50;;;;;;5030668;28;20049;-71
2021/05/12 01:12:50;;;;;;;3.88;1.20;;;17.30;71.20;;;;;;5032680;28;20053;-71
2021/05/12 01:15:23;;;;;;;3.13;1.58;;;17.30;71.60;;;;;;5037089;28;20152;-71
2021/05/12 01:17:50;;;;;;;3.35;1.92;;;17.20;71.90;;;;;;5031583;28;20507;-71
2021/05/12 01:20:17;;;;;;;2.95;1.20;;;17.20;72.00;;;;;;5005970;28;20065;-71
2021/05/12 01:22:45;;;;;;;2.33;1.25;;;17.20;72.50;;;;;;5050943;28;20057;-71
2021/05/12 01:25:12;;;;;;;1.98;1.27;;;17.10;72.00;;;;;;5034441;28;20699;-71
2021/05/12 01:27:39;;;;;;;2.70;1.40;;;17.10;72.10;;;;;;5009129;28;20054;-71
2021/05/12 01:30:07;;;;;;;4.18;1.60;;;17.20;71.80;;;;;;5048485;28;20045;-71
2021/05/12 01:32:36;;;;;;;2.78;1.45;;;17.10;71.80;;;;;;5033078;28;20061;-71
2021/05/12 01:35:12;;;;;;;3.58;1.45;;;17.10;72.10;;;;;;5051110;28;20053;-71
2021/05/12 01:37:39;;;;;;;3.88;1.52;;;17.10;72.90;;;;;;5051217;28;20056;-71
2021/05/12 01:40:08;;;;;;;2.83;1.08;;;17.00;71.80;;;;;;5045358;28;20053;-71
2021/05/12 01:42:35;;;;;;;2.53;1.10;;;17.00;72.20;;;;;;5037226;28;20054;-71
2021/05/12 01:45:05;;;;;;;2.90;1.63;;;17.00;72.60;;;;;;5031658;28;20045;-71
2021/05/12 01:47:32;;;;;;;1.98;1.17;;;17.00;72.00;;;;;;5034463;28;20056;-71
2021/05/12 01:50:08;;;;;;;2.28;1.40;;;16.90;71.50;;;;;;5052060;28;20045;-71
2021/05/12 01:52:44;;;;;;;2.92;1.30;;;17.00;71.60;;;;;;5013004;28;20057;-71
2021/05/12 01:55:13;;;;;;;2.55;1.77;;;16.90;71.20;;;;;;5009580;28;20049;-71
2021/05/12 01:57:44;;;;;;;2.08;1.45;;;16.90;71.60;;;;;;5046496;28;20060;-71
2021/05/12 02:00:30;;;;;;;5.25;1.52;;;16.90;72.40;;;;;;5024411;28;20496;-71
2021/05/12 02:02:57;;;;;;;2.72;1.73;;;16.90;72.40;;;;;;5049658;28;20049;-71
2021/05/12 02:05:26;;;;;;;1.73;1.40;;;16.80;72.60;;;;;;5032957;28;20057;-71
2021/05/12 02:07:57;;;;;;;2.22;1.10;;;16.80;72.30;;;;;;5050268;28;20044;-71
2021/05/12 02:10:25;;;;;;;3.13;1.55;;;16.80;72.50;;;;;;5029639;28;20060;-71
2021/05/12 02:12:53;;;;;;;2.40;1.27;;;16.80;72.40;;;;;;5009455;28;20071;-71
2021/05/12 02:15:21;;;;;;;2.60;1.10;;;16.80;72.20;;;;;;5016114;28;20045;-71
2021/05/12 02:17:49;;;;;;;3.97;1.42;;;16.60;72.60;;;;;;5022628;28;20057;-71
2021/05/12 02:20:23;;;;;;;2.75;0.93;;;16.60;73.10;;;;;;5051139;28;20045;-71
2021/05/12 02:22:50;;;;;;;2.97;1.25;;;16.60;72.80;;;;;;5015103;28;20053;-71
2021/05/12 02:25:17;;;;;;;4.55;1.45;;;16.60;73.00;;;;;;5046410;28;20163;-71
2021/05/12 02:27:45;;;;;;;2.53;1.20;;;16.60;72.90;;;;;;5032560;28;20045;-71
2021/05/12 02:30:15;;;;;;;2.92;1.45;;;16.60;72.70;;;;;;5034585;28;20053;-71
2021/05/12 02:32:42;;;;;;;1.77;1.48;;;16.50;73.00;;;;;;5031924;28;20060;-71
2021/05/12 02:35:10;;;;;;;2.88;1.30;;;16.50;73.20;;;;;;5033186;28;20049;-71
2021/05/12 02:37:37;;;;;;;2.20;1.02;;;16.50;72.60;;;;;;5032957;28;20111;-71
2021/05/12 02:40:07;;;;;;;2.90;1.52;;;16.50;73.20;;;;;;5032198;28;20065;-71
2021/05/12 02:42:34;;;;;;;3.15;1.90;;;16.50;73.70;;;;;;5049469;28;20730;-71
2021/05/12 02:45:02;;;;;;;4.30;1.67;;;16.40;73.00;;;;;;5027115;28;20083;-71
2021/05/12 02:47:29;;;;;;;3.33;1.55;;;16.40;73.40;;;;;;5019319;28;20044;-71
2021/05/12 02:49:56;;;;;;;2.58;1.33;;;16.30;73.40;;;;;;5012169;28;20052;-71
2021/05/12 02:52:23;;;;;;;2.75;1.08;;;16.20;73.50;;;;;;5007299;28;20048;-71
2021/05/12 02:54:51;;;;;;;3.83;1.58;;;16.30;73.20;;;;;;5027689;28;20056;-71
2021/05/12 02:57:19;;;;;;;2.80;1.20;;;16.30;73.80;;;;;;5020573;28;20114;-71
2021/05/12 02:59:46;;;;;;;3.85;1.50;;;16.20;73.50;;;;;;5030821;28;20049;-71
2021/05/12 03:02:13;;;;;;;3.65;1.40;;;16.10;74.30;;;;;;5012183;28;20384;-71
2021/05/12 03:04:40;;;;;;;3.50;1.35;;;16.10;74.20;;;;;;5037195;28;20095;-71
2021/05/12 03:07:08;;;;;;;2.22;1.38;;;16.10;74.60;;;;;;5032088;28;20041;-71
2021/05/12 03:09:36;;;;;;;3.50;1.55;;;16.10;74.00;;;;;;5033479;28;20057;-71
2021/05/12 03:12:03;;;;;;;4.55;1.67;;;16.00;74.40;;;;;;5049707;28;20048;-71
2021/05/12 03:14:30;;;;;;;3.30;1.50;;;16.00;74.30;;;;;;5031571;28;20567;-71
2021/05/12 03:16:57;;;;;;;4.15;1.40;;;16.00;74.80;;;;;;5015533;28;20679;-71
2021/05/12 03:19:26;;;;;;;2.05;1.23;;;16.00;75.10;;;;;;5028726;28;20107;-71
2021/05/12 03:21:54;;;;;;;3.65;1.63;;;15.90;75.70;;;;;;5016121;28;20053;-71
2021/05/12 03:24:22;;;;;;;3.38;1.60;;;15.90;74.90;;;;;;5029961;28;20058;-70
2021/05/12 03:26:49;;;;;;;5.47;1.60;;;15.90;75.70;;;;;;5031290;28;20477;-71
2021/05/12 03:29:17;;;;;;;6.93;2.50;;;15.80;75.80;;;;;;5010727;28;20400;-71
2021/05/12 03:31:44;;;;;;;4.60;1.55;;;15.80;75.60;;;;;;5029051;28;20060;-71
2021/05/12 03:34:11;;;;;;;4.00;1.92;;;15.70;76.50;;;;;;5012046;28;20066;-71
2021/05/12 03:36:38;;;;;;;3.38;2.33;;;15.80;76.70;;;;;;5031827;28;20517;-71
2021/05/12 03:39:06;;;;;;;3.83;2.42;;;15.80;77.30;;;;;;5016874;28;20053;-71
2021/05/12 03:41:33;;;;;;;2.97;1.65;;;15.70;76.80;;;;;;5015941;28;20057;-71
2021/05/12 03:44:00;;;;;;;3.35;1.75;;;15.80;76.50;;;;;;5015890;28;20065;-71
2021/05/12 03:46:27;;;;;;;2.70;1.23;;;15.80;76.40;;;;;;5016027;28;20103;-71
2021/05/12 03:48:54;;;;;;;3.38;1.42;;;15.90;76.10;;;;;;5028886;28;20045;-71
2021/05/12 03:51:21;;;;;;;2.70;1.40;;;15.90;76.10;;;;;;5020527;28;20100;-71
2021/05/12 03:53:48;;;;;;;2.92;1.67;;;16.00;75.60;;;;;;5000226;28;20071;-71
2021/05/12 03:56:15;;;;;;;2.83;1.20;;;16.00;74.90;;;;;;5015279;28;20173;-71
2021/05/12 03:58:42;;;;;;;3.40;1.40;;;16.00;74.40;;;;;;5016777;28;20046;-71
2021/05/12 04:01:09;;;;;;;3.45;1.90;;;16.10;74.70;;;;;;5010980;28;20069;-71
2021/05/12 04:03:36;;;;;;;3.80;1.65;;;16.10;74.30;;;;;;5019463;28;20045;-72
2021/05/12 04:06:04;;;;;;;2.10;1.20;;;16.20;74.90;;;;;;5028068;28;20772;-71
2021/05/12 04:08:31;;;;;;;3.13;1.58;;;16.30;74.40;;;;;;5031714;28;20053;-71
2021/05/12 04:10:58;;;;;;;3.10;1.30;;;16.40;73.70;;;;;;5033068;28;20045;-71
2021/05/12 04:13:25;;;;;;;1.80;1.20;;;16.40;73.50;;;;;;5012665;28;20611;-71
2021/05/12 04:15:52;;;;;;;2.20;1.10;;;16.50;73.30;;;;;;5031506;28;20048;-71
2021/05/12 04:18:19;;;;;;;2.63;1.33;;;16.60;72.60;;;;;;5014666;28;20505;-71
2021/05/12 04:20:47;;;;;;;3.80;1.25;;;16.70;71.50;;;;;;5015093;28;20053;-71
2021/05/12 04:23:16;;;;;;;3.13;0.98;;;16.80;71.60;;;;;;5013732;28;20053;-71
2021/05/12 04:25:43;;;;;;;10.75;1.42;;;16.90;70.50;;;;;;5015150;28;20056;-71
2021/05/12 04:28:13;;;;;;;2.55;0.85;;;17.00;69.70;;;;;;4998997;28;20056;-71
2021/05/12 04:30:40;;;;;;;4.47;0.80;;;17.20;69.10;;;;;;5008484;28;20054;-71
2021/05/12 04:33:07;;;;;;;3.72;0.93;;;17.30;68.90;;;;;;5003548;28;20543;-71
2021/05/12 04:35:34;;;;;;;2.45;1.00;;;17.30;68.70;;;;;;5015734;28;20485;-71
2021/05/12 04:38:01;;;;;;;3.08;1.20;;;17.40;68.40;;;;;;5030950;28;20124;-71
2021/05/12 04:40:28;;;;;;;2.45;1.00;;;17.50;68.00;;;;;;5013432;28;20456;-71
2021/05/12 04:42:55;;;;;;;2.63;1.15;;;17.60;66.90;;;;;;5014301;28;20547;-71
2021/05/12 04:45:22;;;;;;;1.75;0.88;;;17.70;66.80;;;;;;4999596;28;20424;-71
2021/05/12 04:47:58;;;;;;;1.67;0.75;;;17.80;66.50;;;;;;5014957;28;20449;-71
2021/05/12 04:50:29;;;;;;;3.45;0.80;;;17.90;66.30;;;;;;5031556;28;20053;-71
2021/05/12 04:52:57;;;;;;;2.42;0.90;;;18.00;65.90;;;;;;4989839;28;20050;-72
2021/05/12 04:55:25;;;;;;;2.28;0.88;;;18.10;65.90;;;;;;5008590;28;20073;-71
2021/05/12 04:57:52;;;;;;;1.42;0.52;;;18.20;66.30;;;;;;4999929;28;20712;-71
2021/05/12 05:00:24;;;;;;;2.45;0.95;;;18.30;65.90;;;;;;5011489;28;20056;-71
2021/05/12 05:02:51;;;;;;;3.00;0.68;;;18.40;64.50;;;;;;4994872;28;20107;-71
2021/05/12 05:05:18;;;;;;;1.35;0.68;;;18.40;64.70;;;;;;5014317;28;20392;-71
2021/05/12 05:07:45;;;;;;;3.75;1.27;;;18.50;64.70;;;;;;5000648;28;20380;-71
2021/05/12 05:10:14;;;;;;;1.77;1.02;;;18.60;65.50;;;;;;5014013;28;20042;-71
2021/05/12 05:12:41;;;;;;;2.97;0.80;;;18.60;64.00;;;;;;4998547;28;20058;-71
2021/05/12 05:15:09;;;;;;;1.52;0.82;;;18.70;63.40;;;;;;5010023;28;20045;-71
2021/05/12 05:17:36;;;;;;;6.03;0.52;;;18.70;63.60;;;;;;5009741;28;20061;-71
2021/05/12 05:20:04;;;;;;;2.25;0.93;;;18.80;62.50;;;;;;5009427;28;20049;-71
2021/05/12 05:22:32;;;;;;;1.42;0.77;;;18.80;62.60;;;;;;4997998;28;20057;-71
2021/05/12 05:24:59;;;;;;;2.08;0.88;;;18.90;62.60;;;;;;4996580;28;20088;-71
2021/05/12 05:27:26;;;;;;;2.05;0.68;;;18.90;62.30;;;;;;5009861;28;20058;-71
2021/05/12 05:29:53;;;;;;;2.47;1.05;;;18.90;62.30;;;;;;5006022;28;20096;-71
2021/05/12 05:32:38;;;;;;;2.22;0.80;;;19.00;61.90;;;;;;5019894;28;20048;-71
2021/05/12 05:35:25;;;;;;;2.97;0.68;;;19.00;61.60;;;;;;5024939;28;20056;-71
2021/05/12 05:38:10;;;;;;;4.15;1.10;;;19.10;61.30;;;;;;5011174;28;20461;-71
2021/05/12 05:40:56;;;;;;;4.97;0.75;;;19.00;61.70;;;;;;5031987;28;20789;-71
2021/05/12 05:43:41;;;;;;;1.60;0.60;;;19.10;60.80;;;;;;5015442;28;20056;-71
2021/05/12 05:46:27;;;;;;;1.73;0.70;;;19.20;60.80;;;;;;5022468;28;20401;-71
2021/05/12 05:49:12;;;;;;;1.45;0.70;;;19.20;59.80;;;;;;5015742;28;20538;-71
2021/05/12 05:51:58;;;;;;;1.60;0.60;;;19.30;59.40;;;;;;5031155;28;20480;-71
2021/05/12 05:54:44;;;;;;;1.00;0.50;;;19.30;60.10;;;;;;5024798;28;20244;-71
2021/05/12 05:57:30;;;;;;;3.03;0.80;;;19.40;60.10;;;;;;5010405;28;20176;-71
2021/05/12 06:00:17;;;;;;;2.60;1.25;;;19.40;58.80;;;;;;5012757;28;20056;-71
2021/05/12 06:02:45;;;;;;;2.63;0.77;;;19.40;59.00;;;;;;5009263;28;20057;-71
2021/05/12 06:05:30;;;;;;;2.35;0.82;;;19.40;58.90;;;;;;5026003;28;20110;-70
2021/05/12 06:08:15;;;;;;;1.45;0.57;;;19.50;59.00;;;;;;5015872;28;20057;-70
2021/05/12 06:11:02;;;;;;;1.27;0.47;;;19.50;58.30;;;;;;5015305;28;20067;-70
2021/05/12 06:13:49;;;;;;;3.13;0.60;;;19.60;58.30;;;;;;5012277;28;20172;-70
2021/05/12 06:16:35;;;;;;;2.05;0.77;;;19.70;59.00;;;;;;5013063;28;20499;-70
2021/05/12 06:19:21;;;;;;;1.40;0.40;;;19.70;58.00;;;;;;5014513;28;20084;-70
2021/05/12 06:22:15;;;;;;;1.75;0.80;;;19.80;57.90;;;;;;4988123;28;20046;-70
2021/05/12 06:25:13;;;;;;;3.25;1.08;;;19.80;58.40;;;;;;4948027;29;20087;-70
2021/05/12 06:27:59;;;;;;;2.25;0.75;;;19.90;57.80;;;;;;4949868;29;20526;-70
2021/05/12 06:30:50;;;;;;;1.33;0.75;;;20.00;57.70;;;;;;4935754;28;20048;-70
2021/05/12 06:33:38;;;;;;;1.30;0.40;;;20.00;57.50;;;;;;4933927;29;20179;-71
2021/05/12 06:36:24;;;;;;;2.80;0.90;;;20.10;56.90;;;;;;4948669;28;20126;-70
2021/05/12 06:39:39;;;;;;;6.97;1.35;;;20.10;56.90;;;;;;4891453;29;20060;-70
2021/05/12 06:42:06;;;;;;;3.47;0.60;;;20.10;57.40;;;;;;4874589;29;20045;-70
2021/05/12 06:44:33;;;;;;;3.10;0.70;;;20.10;57.80;;;;;;4876549;29;20063;-70
2021/05/12 06:47:00;;;;;;;1.10;0.50;;;20.10;57.10;;;;;;4877386;29;20073;-70
2021/05/12 06:49:27;;;;;;;3.63;0.65;;;20.20;57.00;;;;;;4889043;29;20060;-70
2021/05/12 06:51:56;;;;;;;3.25;0.80;;;20.30;58.20;;;;;;4884271;29;20058;-70
2021/05/12 06:54:23;;;;;;;2.10;0.95;;;20.30;57.00;;;;;;4893607;29;20598;-70
2021/05/12 06:56:51;;;;;;;2.65;0.80;;;20.30;56.90;;;;;;4890830;29;20147;-70
2021/05/12 06:59:18;;;;;;;3.15;1.08;;;20.40;57.10;;;;;;4923022;29;20167;-70
2021/05/12 07:01:46;;;;;;;1.77;0.60;;;20.40;57.50;;;;;;4959743;28;20077;-70
2021/05/12 07:04:13;;;;;;;2.22;0.80;;;20.50;57.90;;;;;;4970647;28;20085;-70
2021/05/12 07:06:40;;;;;;;1.13;0.55;;;20.50;57.50;;;;;;4955048;28;20134;-70
2021/05/12 07:09:07;;;;;;;2.33;0.90;;;20.60;57.10;;;;;;4988090;28;20417;-70
2021/05/12 07:11:34;;;;;;;3.22;0.70;;;20.60;59.20;;;;;;4969215;28;20090;-70
2021/05/12 07:14:03;;;;;;;2.85;0.90;;;20.70;57.70;;;;;;4996520;28;20615;-70
2021/05/12 07:16:30;;;;;;;3.25;0.85;;;20.70;56.60;;;;;;5030278;28;20041;-70
2021/05/12 07:18:57;;;;;;;2.40;0.43;;;20.70;56.80;;;;;;5029243;28;20061;-71
2021/05/12 07:21:24;;;;;;;1.13;0.57;;;20.80;57.00;;;;;;5050341;28;20074;-70
2021/05/12 07:23:52;;;;;;;2.05;0.90;;;20.90;56.90;;;;;;5037551;28;20500;-70
2021/05/12 07:26:19;;;;;;;1.10;0.60;;;21.00;57.20;;;;;;5032880;28;20099;-70
2021/05/12 07:28:46;;;;;;;2.03;0.57;;;21.10;57.10;;;;;;5016175;28;20069;-70
2021/05/12 07:31:13;;;;;;;1.60;0.47;;;21.30;58.10;;;;;;5024968;28;20053;-70
2021/05/12 07:33:41;;;;;;;2.63;0.73;;;21.50;56.80;;;;;;5035362;28;20049;-70
2021/05/12 07:36:09;;;;;;;1.58;0.95;;;21.40;55.70;;;;;;5026926;28;20624;-70
2021/05/12 07:38:36;;;;;;;6.25;1.13;;;21.50;57.10;;;;;;5049390;28;20053;-70
2021/05/12 07:41:04;;;;;;;1.45;0.80;;;21.60;56.20;;;;;;5040107;28;20127;-70
2021/05/12 07:43:31;;;;;;;2.55;1.00;;;21.70;55.40;;;;;;5032275;28;20064;-70
2021/05/12 07:45:59;;;;;;;4.50;0.95;;;21.70;55.70;;;;;;5029008;28;20535;-70
2021/05/12 07:48:27;;;;;;;1.98;0.95;;;21.70;55.30;;;;;;5032838;28;20481;-70
2021/05/12 07:50:54;;;;;;;4.00;0.80;;;21.70;55.20;;;;;;5035629;28;20049;-70
2021/05/12 07:53:22;;;;;;;3.65;0.98;;;21.70;55.30;;;;;;5041600;28;20497;-70
2021/05/12 07:55:49;;;;;;;1.95;0.75;;;21.60;54.50;;;;;;5034226;28;20124;-70
2021/05/12 07:58:16;;;;;;;4.57;1.27;;;21.50;55.00;;;;;;5025922;28;20056;-70
2021/05/12 08:00:45;;;;;;;3.17;0.95;;;21.40;55.40;;;;;;5029501;28;20099;-70
2021/05/12 08:03:12;;;;;;;2.50;0.90;;;21.30;55.50;;;;;;5025129;28;20462;-70
2021/05/12 08:05:39;;;;;;;1.63;0.38;;;21.30;55.70;;;;;;5028438;28;20049;-70
2021/05/12 08:08:07;;;;;;;3.25;1.10;;;21.30;56.20;;;;;;5029868;28;20068;-70
2021/05/12 08:10:35;;;;;;;3.95;0.88;;;21.30;55.80;;;;;;5033633;28;20131;-70
2021/05/12 08:13:02;;;;;;;2.78;0.82;;;21.40;56.90;;;;;;5031341;28;20049;-70
2021/05/12 08:15:29;;;;;;;4.70;0.73;;;21.40;57.10;;;;;;5028217;28;20484;-70
2021/05/12 08:17:56;;;;;;;4.45;0.93;;;21.40;56.90;;;;;;5028386;28;20067;-70
2021/05/12 08:20:24;;;;;;;3.58;0.77;;;21.30;56.70;;;;;;5026386;28;20054;-69
2021/05/12 08:22:51;;;;;;;1.70;0.55;;;21.30;57.20;;;;;;5030005;28;20049;-71
2021/05/12 08:25:18;;;;;;;5.68;0.85;;;21.30;56.80;;;;;;5026894;28;20057;-71
2021/05/12 08:27:46;;;;;;;4.32;0.90;;;21.40;58.00;;;;;;5014807;28;20111;-70
2021/05/12 08:30:14;;;;;;;5.57;0.85;;;21.50;56.90;;;;;;5033508;28;20055;-71
2021/05/12 08:32:42;;;;;;;9.77;1.45;;;21.40;57.10;;;;;;5024486;28;20065;-71
2021/05/12 08:35:09;;;;;;;3.25;0.85;;;21.50;57.10;;;;;;5030038;28;20084;-70
2021/05/12 08:37:36;;;;;;;3.15;0.90;;;21.50;56.70;;;;;;5032676;28;20136;-70
2021/05/12 08:40:04;;;;;;;3.13;1.00;;;21.50;56.30;;;;;;5023958;28;20432;-71
2021/05/12 08:42:31;;;;;;;8.35;1.27;;;21.50;56.40;;;;;;5010973;28;20131;-71
2021/05/12 08:44:59;;;;;;;3.55;1.00;;;21.60;56.80;;;;;;5032194;28;20053;-72
2021/05/12 08:47:26;;;;;;;6.47;1.10;;;21.70;56.30;;;;;;5031556;28;20052;-71
2021/05/12 08:49:54;;;;;;;5.72;1.20;;;21.70;57.20;;;;;;5030040;28;20055;-71
2021/05/12 08:52:23;;;;;;;6.45;0.98;;;21.80;56.20;;;;;;5033132;28;20519;-72
2021/05/12 08:54:51;;;;;;;1.33;0.85;;;21.90;56.20;;;;;;5046849;28;20037;-72
2021/05/12 08:57:18;;;;;;;2.92;0.90;;;22.00;57.50;;;;;;5017694;28;20049;-71
2021/05/12 08:59:45;;;;;;;1.35;0.90;;;22.10;56.80;;;;;;5046080;28;20057;-71
2021/05/12 09:02:15;;;;;;;2.30;1.00;;;22.20;55.60;;;;;;5029883;28;20064;-71
2021/05/12 09:04:42;;;;;;;6.40;2.10;;;22.40;56.60;;;;;;5030287;28;20059;-71
2021/05/12 09:07:09;;;;;;;2.65;1.27;;;22.50;55.10;;;;;;5027599;28;20049;-71
2021/05/12 09:09:37;;;;;;;3.05;0.80;;;22.80;54.60;;;;;;5007350;28;20053;-71
2021/05/12 09:12:04;;;;;;;1.98;0.65;;;22.80;53.40;;;;;;5030045;28;20064;-71
2021/05/12 09:14:34;;;;;;;2.70;0.90;;;23.00;55.20;;;;;;5030742;28;20492;-75
2021/05/12 09:17:02;;;;;;;1.77;0.90;;;23.30;54.20;;;;;;5015006;28;20059;-73
2021/05/12 09:19:29;;;;;;;2.45;0.85;;;23.50;51.30;;;;;;5031604;28;20146;-73
2021/05/12 09:22:05;;;;;;;1.55;0.68;;;23.70;51.90;;;;;;5030373;28;20045;-74
2021/05/12 09:24:42;;;;;;;1.50;0.82;;;23.90;52.70;;;;;;5015364;28;20415;-74
2021/05/12 09:27:13;;;;;;;1.20;0.73;;;24.10;51.90;;;;;;5048054;28;20060;-74
2021/05/12 09:29:43;;;;;;;2.97;0.82;;;24.30;51.10;;;;;;5030271;28;20166;-73
2021/05/12 09:32:15;;;;;;;1.83;0.80;;;24.40;51.30;;;;;;5043858;28;20042;-74
2021/05/12 09:34:58;;;;;;;2.80;0.80;;;24.60;52.00;;;;;;5012189;28;20574;-73
2021/05/12 09:37:45;;;;;;;1.25;0.82;;;24.80;51.90;;;;;;5026770;28;20166;-71
2021/05/12 09:40:17;;;;;;;6.22;1.10;;;25.00;50.90;;;;;;5044007;28;20052;-71
2021/05/12 09:42:54;;;;;;;2.25;1.02;;;25.20;50.50;;;;;;5032225;28;20052;-71
2021/05/12 09:45:25;;;;;;;4.47;1.17;;;25.40;48.90;;;;;;5019441;28;20557;-73
2021/05/12 09:47:57;;;;;;;3.13;1.23;;;25.50;50.00;;;;;;5029604;28;20392;-71
2021/05/12 09:50:26;;;;;;;2.03;0.82;;;25.60;48.30;;;;;;5045965;28;20484;-72
2021/05/12 09:52:58;;;;;;;1.83;0.93;;;25.60;47.60;;;;;;5039077;28;20113;-73
2021/05/12 09:55:44;;;;;;;4.70;0.93;;;25.50;48.10;;;;;;4996957;28;20058;-73
2021/05/12 09:58:19;;;;;;;1.08;0.57;;;25.60;48.70;;;;;;5009111;28;20052;-74
2021/05/12 10:00:51;;;;;;;2.55;1.00;;;25.70;49.20;;;;;;5046775;28;20048;-72
2021/05/12 10:03:23;;;;;;;3.15;0.85;;;25.70;48.50;;;;;;5020273;28;20558;-73
2021/05/12 10:06:02;;;;;;;1.30;0.60;;;25.60;46.20;;;;;;5042766;28;20041;-71
2021/05/12 10:08:30;;;;;;;2.13;0.90;;;25.70;48.40;;;;;;5047611;28;20096;-73
2021/05/12 10:11:03;;;;;;;2.47;0.80;;;25.90;47.10;;;;;;5030528;28;20096;-73
2021/05/12 10:13:30;;;;;;;;;;;25.70;46.50;;;;;;5046937;28;20068;-70
2021/05/12 10:15:59;;;;;;;1.85;0.88;;;25.80;48.00;;;;;;5024736;28;19932;-72
2021/05/12 10:18:26;;;;;;;2.25;0.60;;;25.80;47.90;;;;;;5023512;28;20045;-73
2021/05/12 10:20:57;;;;;;;1.67;0.73;;;25.80;47.00;;;;;;5042144;28;20510;-72
2021/05/12 10:23:25;;;;;;;4.03;1.00;;;25.90;47.90;;;;;;5018945;28;20396;-72
2021/05/12 10:25:53;;;;;;;2.78;0.98;;;25.90;47.40;;;;;;5027287;28;20092;-72
2021/05/12 10:28:22;;;;;;;1.55;0.90;;;25.90;46.30;;;;;;5041138;28;20512;-72
2021/05/12 10:30:54;;;;;;;1.60;0.77;;;25.90;47.50;;;;;;5007837;28;20049;-71
2021/05/12 10:33:47;;;;;;;4.22;0.90;;;25.90;46.80;;;;;;5005205;28;20404;-70
2021/05/12 10:36:23;;;;;;;1.45;0.80;;;25.80;46.50;;;;;;5028093;28;20091;-70
2021/05/12 10:38:56;;;;;;;1.25;0.73;;;25.90;46.90;;;;;;5031500;28;20049;-70
2021/05/12 10:41:46;;;;;;;2.70;0.95;;;26.00;46.50;;;;;;5049207;28;20047;-70
2021/05/12 10:44:21;;;;;;;2.90;1.13;;;26.10;46.50;;;;;;5028541;28;20522;-71
2021/05/12 10:47:10;;;;;;;2.05;0.90;;;26.20;47.40;;;;;;5025671;28;20045;-73
2021/05/12 10:49:38;;;;;;;5.90;1.55;;;26.30;48.30;;;;;;5030681;28;20060;-72
2021/05/12 10:52:09;;;;;;;4.82;0.98;;;26.20;46.90;;;;;;5030758;28;20075;-71
2021/05/12 10:54:48;;;;;;;2.58;1.40;;;26.20;47.90;;;;;;5047866;28;20051;-71
2021/05/12 10:57:45;;;;;;;3.35;1.60;;;26.00;48.20;;;;;;5030992;28;20151;-71
2021/05/12 11:00:14;;;;;;;2.75;1.20;;;25.90;48.90;;;;;;5025578;28;20049;-71
2021/05/12 11:02:50;;;;;;;6.35;1.17;;;25.90;48.20;;;;;;5057266;28;21446;-70
2021/05/12 11:05:18;;;;;;;5.40;1.15;;;26.00;48.10;;;;;;5030830;28;20052;-71
2021/05/12 11:08:13;;;;;;;4.05;1.77;;;25.90;48.40;;;;;;5025953;28;20046;-70
2021/05/12 11:11:04;;;;;;;7.32;1.85;;;25.90;52.30;;;;;;5026156;28;20080;-70
2021/05/12 11:13:33;;;;;;;5.13;1.88;;;25.90;53.90;;;;;;5028953;28;20591;-71
2021/05/12 11:16:03;;;;;;;10.45;2.15;;;25.70;53.60;;;;;;5012792;28;20060;-71
2021/05/12 11:18:34;;;;;;;5.40;1.70;;;25.20;54.10;;;;;;5030134;28;20291;-71
2021/05/12 11:21:16;;;;;;;4.65;1.55;;;24.80;55.60;;;;;;5015186;28;20056;-71
2021/05/12 11:24:14;;;;;;;7.15;1.30;;;24.30;57.20;;;;;;5047872;28;20057;-71
2021/05/12 11:32:06;;;;;;;5.13;1.90;;;23.20;62.00;;;;;;5041875;28;20049;-71
2021/05/12 11:34:34;;;;;;;;;;;23.00;63.20;;;;;;5048905;28;20056;-71
2021/05/12 11:37:12;;;;;;;4.57;2.08;;;22.80;64.50;;;;;;5041931;28;19924;-71
2021/05/12 11:39:54;;;;;;;10.93;2.70;;;22.70;65.40;;;;;;5030638;28;20411;-70
2021/05/12 11:42:25;;;;;;;8.35;2.50;;;22.50;66.30;;;;;;5013001;28;20534;-71
2021/05/12 11:45:13;;;;;;;5.60;2.63;;;22.40;66.70;;;;;;5031230;28;20078;-70
2021/05/12 11:47:44;;;;;;;3.17;2.05;;;22.30;67.30;;;;;;5030645;28;20059;-71
2021/05/12 11:50:19;;;;;;;7.55;2.60;;;22.20;68.00;;;;;;5029083;28;20624;-71
2021/05/12 11:52:47;;;;;;;8.60;4.03;;;22.20;68.10;;;;;;5026232;28;20049;-71
2021/05/12 11:55:14;;;;;;;4.90;2.58;;;22.10;68.70;;;;;;5030314;28;20077;-71
2021/05/12 11:57:45;;;;;;;5.97;3.20;;;22.10;69.60;;;;;;5001517;28;20428;-71
2021/05/12 12:00:22;;;;;;;5.45;3.00;;;22.00;70.60;;;;;;5031157;28;20527;-71
2021/05/12 12:03:01;;;;;;;10.18;3.67;;;22.00;70.50;;;;;;5047396;28;20061;-71
2021/05/12 12:05:45;;;;;;;7.43;3.95;;;21.80;72.50;;;;;;5050966;28;20083;-70
2021/05/12 12:08:18;;;;;;;9.65;3.88;;;21.70;74.60;;;;;;5041631;28;20044;-71
2021/05/12 12:10:45;;;;;;;9.27;3.63;;;21.50;76.50;;;;;;5032635;28;20048;-70
2021/05/12 12:13:15;;;;;;;7.00;4.18;;;21.20;79.50;;;;;;5018070;28;20037;-70
2021/05/12 12:15:44;;;;;;;8.77;5.15;;;21.00;82.50;;;;;;5050201;28;20053;-71
2021/05/12 12:18:12;;;;;;;11.75;5.32;;;20.70;84.50;;;;;;5037503;28;20511;-71
2021/05/12 12:20:39;;;;;;;7.10;4.35;;;20.40;86.30;;;;;;5051715;28;20750;-70
2021/05/12 12:23:07;;;;;;;7.63;4.25;;;20.30;87.70;;;;;;5017109;28;20045;-71
2021/05/12 12:25:52;;;;;;;6.15;4.15;;;20.20;90.30;;;;;;5047231;28;20563;-70
2021/05/12 12:28:19;;;;;;;9.80;4.93;;;20.10;91.30;;;;;;5045760;28;20135;-71
2021/05/12 12:30:46;;;;;;;8.57;4.20;;;20.00;91.70;;;;;;5033552;28;20045;-70
2021/05/12 12:33:13;;;;;;;4.97;2.83;;;19.80;92.10;;;;;;5053250;28;20044;-70
2021/05/12 12:36:01;;;;;;;6.32;3.25;;;19.70;91.60;;;;;;5021557;28;20053;-70
2021/05/12 12:38:30;;;;;;;6.03;3.30;;;19.60;92.00;;;;;;5029499;28;20041;-70
2021/05/12 12:40:57;;;;;;;6.15;2.55;;;19.70;92.20;;;;;;5017316;28;20654;-70
2021/05/12 12:43:39;;;;;;;7.90;3.05;;;19.80;92.50;;;;;;5025268;28;20049;-71
2021/05/12 12:46:07;;;;;;;7.35;4.07;;;19.70;94.40;;;;;;5045919;28;20056;-70
2021/05/12 12:48:35;;;;;;;8.90;3.53;;;19.70;96.60;;;;;;5044064;28;20050;-70
2021/05/12 12:51:04;;;;;;;4.95;3.40;;;19.50;97.10;;;;;;5044522;28;20063;-71
2021/05/12 12:53:34;;;;;;;7.55;3.08;;;19.40;98.60;;;;;;5023959;28;20053;-71
2021/05/12 12:56:09;;;;;;;6.15;3.17;;;19.40;99.90;;;;;;5041027;28;20151;-69
2021/05/12 12:58:36;;;;;;;7.50;3.22;;;19.40;99.90;;;;;;5039434;28;20084;-71
2021/05/12 13:01:04;;;;;;;7.75;3.50;;;19.40;99.90;;;;;;5031543;28;20049;-72
2021/05/12 13:03:34;;;;;;;5.80;3.15;;;19.40;99.90;;;;;;5012295;28;20060;-71
2021/05/12 13:06:01;;;;;;;5.32;2.58;;;19.50;99.90;;;;;;5019255;28;20080;-70
2021/05/12 13:08:38;;;;;;;4.45;2.47;;;19.60;99.80;;;;;;5027756;28;20067;-71
2021/05/12 13:11:05;;;;;;;6.38;2.05;;;19.60;99.90;;;;;;5031799;28;20141;-70
2021/05/12 13:13:44;;;;;;;4.30;2.30;;;19.60;99.90;;;;;;5023609;28;20057;-71